createdAt,value
2022-10-29T00:02:22.151Z,70.79
2022-10-29T00:04:49.770Z,70.76
2022-10-29T00:07:17.084Z,71.08
2022-10-29T00:09:44.473Z,70.69
2022-10-29T00:12:12.051Z,71.63
2022-10-29T00:14:39.391Z,72.95
2022-10-29T00:17:06.693Z,72.05
2022-10-29T00:19:34.271Z,70.86
2022-10-29T00:22:01.634Z,71.52
2022-10-29T00:24:28.958Z,70.60
2022-10-29T00:26:56.516Z,70.59
2022-10-29T00:29:23.888Z,70.96
2022-10-29T00:31:51.298Z,70.54
2022-10-29T00:34:18.970Z,70.79
2022-10-29T00:36:46.384Z,70.49
2022-10-29T00:39:15.254Z,70.80
2022-10-29T00:41:42.946Z,71.20
2022-10-29T00:44:20.508Z,71.13
2022-10-29T00:46:48.565Z,71.23
2022-10-29T00:49:15.902Z,71.04
2022-10-29T00:51:43.362Z,70.94
2022-10-29T00:54:11.624Z,72.02
2022-10-29T00:56:41.531Z,71.73
2022-10-29T00:59:08.891Z,71.30
2022-10-29T01:01:36.822Z,71.38
2022-10-29T01:04:04.453Z,71.59
2022-10-29T01:06:31.751Z,70.72
2022-10-29T01:08:59.359Z,71.44
2022-10-29T01:11:38.834Z,71.46
2022-10-29T01:14:15.572Z,70.92
2022-10-29T01:16:42.674Z,71.33
2022-10-29T01:19:34.475Z,70.55
2022-10-29T01:22:17.501Z,70.90
2022-10-29T01:25:20.279Z,70.47
2022-10-29T01:28:02.124Z,69.62
2022-10-29T01:30:51.433Z,71.01
2022-10-29T01:33:37.187Z,71.41
2022-10-29T01:36:07.686Z,71.36
2022-10-29T01:38:36.735Z,70.78
2022-10-29T01:41:13.076Z,70.43
2022-10-29T01:43:52.066Z,70.12
2022-10-29T01:46:21.888Z,69.83
2022-10-29T01:48:51.890Z,69.60
2022-10-29T01:51:23.848Z,70.05
2022-10-29T01:53:51.579Z,69.42
2022-10-29T01:56:18.879Z,70.29
2022-10-29T01:58:49.609Z,70.18
2022-10-29T02:01:54.388Z,70.07
2022-10-29T02:04:33.184Z,70.41
2022-10-29T02:07:07.921Z,70.02
2022-10-29T02:10:03.507Z,69.93
2022-10-29T02:12:33.635Z,69.19
2022-10-29T02:15:08.673Z,71.50
2022-10-29T02:17:36.011Z,74.09
2022-10-29T02:20:08.236Z,74.16
2022-10-29T02:22:35.590Z,72.37
2022-10-29T02:25:02.992Z,71.74
2022-10-29T02:27:30.649Z,71.43
2022-10-29T02:29:57.981Z,71.23
2022-10-29T02:32:25.337Z,71.85
2022-10-29T02:34:52.898Z,71.50
2022-10-29T02:37:20.236Z,71.99
2022-10-29T02:39:47.546Z,72.78
2022-10-29T02:42:15.175Z,72.43
2022-10-29T02:44:42.480Z,72.12
2022-10-29T02:47:09.793Z,72.04
2022-10-29T02:49:37.442Z,72.03
2022-10-29T02:52:04.977Z,72.05
2022-10-29T02:54:32.308Z,71.11
2022-10-29T02:56:59.900Z,70.62
2022-10-29T02:59:27.250Z,71.54
2022-10-29T03:01:54.713Z,71.48
2022-10-29T03:04:22.344Z,71.04
2022-10-29T03:06:49.718Z,71.46
2022-10-29T03:09:17.023Z,71.79
2022-10-29T03:11:44.595Z,71.70
2022-10-29T03:14:12.003Z,71.85
2022-10-29T03:16:39.325Z,70.73
2022-10-29T03:19:06.948Z,71.70
2022-10-29T03:21:34.307Z,71.23
2022-10-29T03:24:01.641Z,71.49
2022-10-29T03:26:29.236Z,71.15
2022-10-29T03:28:56.643Z,71.27
2022-10-29T03:31:23.967Z,70.35
2022-10-29T03:33:51.588Z,70.91
2022-10-29T03:36:18.930Z,70.59
2022-10-29T03:38:46.319Z,70.86
2022-10-29T03:41:13.919Z,70.74
2022-10-29T03:43:41.381Z,70.98
2022-10-29T03:46:08.798Z,71.20
2022-10-29T03:48:36.367Z,70.81
2022-10-29T03:51:07.738Z,71.49
2022-10-29T03:53:35.746Z,70.46
2022-10-29T03:56:03.642Z,71.35
2022-10-29T03:58:30.973Z,70.40
2022-10-29T04:01:02.841Z,70.74
2022-10-29T04:03:31.410Z,71.26
2022-10-29T04:05:59.487Z,70.52
2022-10-29T04:08:26.853Z,70.14
2022-10-29T04:10:54.459Z,70.58
2022-10-29T04:13:21.777Z,70.80
2022-10-29T04:15:49.123Z,70.70
2022-10-29T04:18:16.695Z,70.42
2022-10-29T04:22:31.620Z,69.66
2022-10-29T04:29:06.472Z,68.90
2022-10-29T04:31:33.809Z,70.04
2022-10-29T04:34:01.127Z,70.88
2022-10-29T04:36:28.697Z,70.84
2022-10-29T04:38:56.040Z,70.52
2022-10-29T04:41:23.366Z,69.58
2022-10-29T04:43:50.936Z,69.34
2022-10-29T04:46:18.265Z,70.69
2022-10-29T04:48:45.582Z,70.60
2022-10-29T04:51:25.818Z,71.17
2022-10-29T04:53:53.300Z,71.03
2022-10-29T04:56:20.913Z,70.62
2022-10-29T04:58:51.412Z,70.68
2022-10-29T05:01:19.042Z,70.80
2022-10-29T05:03:46.768Z,70.92
2022-10-29T05:06:14.180Z,70.41
2022-10-29T05:08:41.491Z,70.60
2022-10-29T05:11:09.072Z,71.17
2022-10-29T05:13:36.419Z,71.24
2022-10-29T05:16:03.929Z,71.27
2022-10-29T05:18:31.512Z,73.57
2022-10-29T05:20:58.897Z,72.89
2022-10-29T05:23:26.268Z,72.73
2022-10-29T05:25:55.258Z,72.22
2022-10-29T05:28:22.951Z,72.31
2022-10-29T05:30:51.130Z,71.46
2022-10-29T05:33:20.437Z,72.21
2022-10-29T05:35:47.930Z,72.60
2022-10-29T05:38:15.449Z,72.56
2022-10-29T05:40:45.039Z,72.37
2022-10-29T05:43:13.395Z,71.62
2022-10-29T05:45:40.812Z,71.18
2022-10-29T05:48:08.443Z,71.67
2022-10-29T05:50:35.955Z,71.45
2022-10-29T05:53:04.838Z,70.54
2022-10-29T05:55:33.343Z,70.32
2022-10-29T05:58:02.112Z,71.01
2022-10-29T06:00:31.364Z,71.56
2022-10-29T06:02:59.183Z,71.79
2022-10-29T06:05:26.902Z,72.07
2022-10-29T06:07:56.102Z,71.57
2022-10-29T06:10:24.625Z,72.16
2022-10-29T06:12:51.969Z,71.22
2022-10-29T06:15:19.344Z,69.70
2022-10-29T06:17:47.032Z,70.43
2022-10-29T06:20:15.365Z,70.80
2022-10-29T06:22:42.697Z,69.75
2022-10-29T06:25:10.373Z,69.91
2022-10-29T06:27:37.685Z,69.86
2022-10-29T06:30:05.729Z,68.84
2022-10-29T06:32:33.339Z,69.21
2022-10-29T06:35:00.658Z,69.33
2022-10-29T06:37:29.698Z,69.18
2022-10-29T06:39:57.276Z,68.68
2022-10-29T06:42:24.601Z,67.83
2022-10-29T06:44:51.932Z,69.48
2022-10-29T06:47:19.619Z,69.29
2022-10-29T06:49:46.944Z,67.96
2022-10-29T06:52:14.250Z,70.41
2022-10-29T06:54:41.864Z,70.48
2022-10-29T06:57:09.170Z,71.02
2022-10-29T06:59:36.484Z,70.07
2022-10-29T07:02:04.115Z,70.34
2022-10-29T07:04:31.489Z,69.42
2022-10-29T07:06:58.800Z,70.31
2022-10-29T07:09:26.456Z,69.65
2022-10-29T07:11:53.804Z,69.92
2022-10-29T07:14:21.112Z,70.31
2022-10-29T07:16:48.747Z,69.07
2022-10-29T07:19:16.092Z,69.12
2022-10-29T07:21:43.674Z,68.88
2022-10-29T07:24:11.258Z,69.15
2022-10-29T07:26:38.611Z,69.55
2022-10-29T07:29:05.931Z,68.86
2022-10-29T07:31:33.517Z,68.37
2022-10-29T07:34:00.879Z,67.98
2022-10-29T07:36:30.280Z,68.71
2022-10-29T07:38:57.905Z,69.78
2022-10-29T07:41:25.683Z,71.03
2022-10-29T07:43:53.029Z,70.39
2022-10-29T07:46:20.842Z,70.13
2022-10-29T07:48:48.215Z,69.81
2022-10-29T07:51:15.525Z,69.62
2022-10-29T07:53:43.140Z,70.46
2022-10-29T07:56:10.493Z,69.80
2022-10-29T07:58:37.842Z,68.49
2022-10-29T08:01:05.521Z,68.42
2022-10-29T08:03:33.601Z,70.04
2022-10-29T08:06:00.923Z,69.96
2022-10-29T08:08:28.252Z,68.27
2022-10-29T08:11:00.194Z,69.43
2022-10-29T08:13:27.571Z,69.29
2022-10-29T08:15:54.913Z,69.18
2022-10-29T08:18:22.517Z,68.48
2022-10-29T08:20:49.869Z,68.63
2022-10-29T08:23:17.239Z,68.05
2022-10-29T08:25:44.969Z,69.00
2022-10-29T08:28:13.855Z,68.37
2022-10-29T08:30:41.816Z,68.61
2022-10-29T08:33:09.843Z,69.22
2022-10-29T08:35:37.195Z,68.89
2022-10-29T08:38:04.530Z,68.14
2022-10-29T08:40:44.091Z,69.45
2022-10-29T08:43:35.669Z,68.93
2022-10-29T08:46:03.296Z,69.43
2022-10-29T08:48:33.584Z,69.38
2022-10-29T08:51:20.574Z,68.29
2022-10-29T08:54:17.058Z,68.21
2022-10-29T08:56:40.265Z,69.88
2022-10-29T08:59:16.273Z,71.56
2022-10-29T09:01:44.114Z,70.06
2022-10-29T09:04:22.505Z,69.23
2022-10-29T09:07:17.545Z,68.75
2022-10-29T09:09:55.089Z,68.33
2022-10-29T09:13:00.204Z,67.81
2022-10-29T09:15:56.357Z,67.50
2022-10-29T09:18:30.234Z,65.97
2022-10-29T09:21:13.095Z,66.29
2022-10-29T09:23:56.346Z,65.62
2022-10-29T09:26:58.327Z,66.61
2022-10-29T09:29:59.543Z,66.83
2022-10-29T09:32:32.205Z,66.55
2022-10-29T09:35:14.868Z,66.76
2022-10-29T09:37:44.421Z,66.90
2022-10-29T09:40:31.277Z,65.17
2022-10-29T09:43:00.375Z,64.57
2022-10-29T09:45:36.689Z,66.06
2022-10-29T09:48:15.542Z,65.55
2022-10-29T09:51:01.909Z,63.96
2022-10-29T09:53:29.688Z,63.97
2022-10-29T09:55:56.995Z,63.59
2022-10-29T09:58:26.488Z,63.70
2022-10-29T10:00:54.676Z,63.95
2022-10-29T10:03:37.939Z,63.29
2022-10-29T10:06:07.499Z,64.22
2022-10-29T10:08:35.433Z,64.43
2022-10-29T10:11:04.892Z,62.56
2022-10-29T10:13:36.715Z,65.08
2022-10-29T10:16:06.025Z,67.15
2022-10-29T10:18:33.354Z,64.37
2022-10-29T10:21:03.934Z,64.29
2022-10-29T10:23:52.597Z,64.52
2022-10-29T10:26:28.760Z,64.11
2022-10-29T10:29:15.597Z,66.00
2022-10-29T10:32:03.041Z,65.59
2022-10-29T10:34:33.282Z,66.17
2022-10-29T10:37:09.459Z,66.79
2022-10-29T10:39:36.874Z,66.14
2022-10-29T10:42:24.285Z,66.08
2022-10-29T10:44:59.446Z,66.16
2022-10-29T10:47:28.690Z,66.50
2022-10-29T10:50:32.482Z,66.73
2022-10-29T10:53:17.377Z,66.35
2022-10-29T10:55:57.893Z,65.60
2022-10-29T10:58:31.798Z,65.87
2022-10-29T11:01:09.345Z,65.58
2022-10-29T11:03:45.380Z,64.30
2022-10-29T11:06:21.067Z,63.99
2022-10-29T11:09:18.736Z,65.16
2022-10-29T11:11:59.012Z,66.20
2022-10-29T11:14:30.684Z,66.96
2022-10-29T11:16:59.299Z,66.17
2022-10-29T11:19:40.522Z,65.99
2022-10-29T11:22:26.712Z,65.19
2022-10-29T11:24:56.266Z,65.52
2022-10-29T11:27:47.775Z,64.59
2022-10-29T11:30:16.239Z,63.84
2022-10-29T11:33:05.313Z,65.37
2022-10-29T11:35:58.823Z,65.85
2022-10-29T11:38:33.376Z,64.55
2022-10-29T11:41:28.307Z,64.44
2022-10-29T11:43:55.899Z,62.91
2022-10-29T11:47:04.304Z,67.06
2022-10-29T11:50:16.112Z,67.80
2022-10-29T11:52:46.054Z,66.78
2022-10-29T11:55:52.757Z,66.52
2022-10-29T11:58:24.530Z,65.11
2022-10-29T12:01:12.218Z,65.15
2022-10-29T12:03:42.119Z,63.72
2022-10-29T12:06:20.035Z,66.66
2022-10-29T12:09:23.584Z,68.22
2022-10-29T12:12:23.415Z,68.25
2022-10-29T12:15:18.844Z,68.61
2022-10-29T12:18:09.040Z,67.16
2022-10-29T12:20:59.750Z,66.56
2022-10-29T12:23:41.947Z,65.29
2022-10-29T12:26:23.322Z,66.49
2022-10-29T12:29:00.102Z,65.62
2022-10-29T12:31:47.605Z,64.22
2022-10-29T12:34:26.354Z,64.14
2022-10-29T12:36:56.685Z,65.03
2022-10-29T12:39:30.902Z,64.47
2022-10-29T12:42:01.515Z,64.07
2022-10-29T12:44:44.965Z,63.24
2022-10-29T12:47:38.146Z,63.99
2022-10-29T12:50:44.915Z,64.52
2022-10-29T12:53:24.831Z,63.96
2022-10-29T12:55:52.187Z,63.29
2022-10-29T12:58:57.389Z,63.55
2022-10-29T13:01:43.867Z,64.67
2022-10-29T13:04:27.901Z,63.91
2022-10-29T13:10:24.541Z,65.72
2022-10-29T13:13:05.518Z,64.45
2022-10-29T13:15:43.821Z,63.45
2022-10-29T13:18:23.615Z,64.83
2022-10-29T13:20:52.462Z,68.01
2022-10-29T13:23:22.684Z,65.86
2022-10-29T13:25:59.038Z,65.33
2022-10-29T13:28:26.486Z,69.45
2022-10-29T13:31:13.958Z,68.50
2022-10-29T13:33:41.414Z,68.73
2022-10-29T13:36:18.936Z,68.42
2022-10-29T13:39:04.361Z,66.41
2022-10-29T13:41:42.367Z,67.60
2022-10-29T13:44:11.278Z,68.27
2022-10-29T13:46:53.058Z,66.77
2022-10-29T13:49:23.595Z,67.84
2022-10-29T13:51:56.057Z,67.61
2022-10-29T13:54:37.965Z,67.91
2022-10-29T13:57:31.950Z,67.11
2022-10-29T14:00:03.666Z,66.71
2022-10-29T14:02:55.043Z,67.97
2022-10-29T14:05:32.087Z,67.37
2022-10-29T14:08:28.659Z,67.21
2022-10-29T14:10:59.561Z,69.09
2022-10-29T14:13:30.872Z,68.09
2022-10-29T14:16:07.468Z,69.34
2022-10-29T14:18:41.285Z,67.94
2022-10-29T14:21:36.598Z,68.49
2022-10-29T14:24:04.988Z,67.96
2022-10-29T14:26:34.239Z,67.89
2022-10-29T14:29:31.001Z,69.30
2022-10-29T14:32:13.087Z,68.16
2022-10-29T14:34:45.305Z,70.00
2022-10-29T14:37:18.841Z,69.06
2022-10-29T14:39:57.436Z,68.80
2022-10-29T14:42:33.380Z,69.67
2022-10-29T14:45:03.374Z,69.20
2022-10-29T14:47:34.879Z,69.18
2022-10-29T14:50:03.698Z,69.94
2022-10-29T14:52:34.151Z,70.78
2022-10-29T14:55:03.290Z,70.21
2022-10-29T14:57:32.610Z,69.53
2022-10-29T15:00:04.753Z,74.78
2022-10-29T15:02:38.702Z,73.30
2022-10-29T15:05:28.971Z,72.11
2022-10-29T15:08:11.778Z,70.81
2022-10-29T15:10:48.638Z,73.06
2022-10-29T15:13:28.162Z,70.42
2022-10-29T15:16:16.783Z,70.78
2022-10-29T15:18:50.931Z,69.89
2022-10-29T15:21:22.687Z,69.62
2022-10-29T15:23:52.532Z,69.25
2022-10-29T15:26:23.198Z,69.55
2022-10-29T15:28:52.243Z,69.97
2022-10-29T15:31:40.468Z,69.27
2022-10-29T15:34:09.255Z,69.46
2022-10-29T15:36:46.429Z,69.54
2022-10-29T15:39:22.931Z,69.12
2022-10-29T15:41:50.457Z,68.99
2022-10-29T15:45:07.830Z,68.43
2022-10-29T15:47:36.270Z,69.86
2022-10-29T15:50:09.630Z,68.45
2022-10-29T15:52:38.764Z,69.12
2022-10-29T15:55:27.880Z,72.08
2022-10-29T15:58:10.842Z,70.90
2022-10-29T16:00:38.485Z,70.41
2022-10-29T16:03:23.162Z,68.83
2022-10-29T16:05:53.857Z,70.62
2022-10-29T16:08:29.716Z,72.18
2022-10-29T16:10:57.362Z,72.19
2022-10-29T16:13:25.363Z,71.83
2022-10-29T16:15:52.732Z,70.32
2022-10-29T16:18:20.183Z,69.48
2022-10-29T16:20:48.389Z,69.36
2022-10-29T16:23:15.755Z,69.37
2022-10-29T16:25:43.078Z,69.70
2022-10-29T16:28:10.756Z,69.80
2022-10-29T16:30:41.050Z,68.90
2022-10-29T16:33:10.559Z,69.04
2022-10-29T16:35:38.252Z,68.89
2022-10-29T16:38:05.576Z,68.41
2022-10-29T16:40:32.908Z,69.55
2022-10-29T16:43:00.793Z,69.33
2022-10-29T16:45:29.936Z,68.90
2022-10-29T16:47:57.819Z,69.11
2022-10-29T16:50:27.366Z,69.07
2022-10-29T16:53:01.382Z,69.37
2022-10-29T16:55:29.208Z,68.32
2022-10-29T16:57:56.992Z,67.85
2022-10-29T17:00:25.987Z,68.30
2022-10-29T17:02:53.698Z,69.80
2022-10-29T17:05:21.227Z,69.26
2022-10-29T17:07:48.553Z,69.54
2022-10-29T17:10:16.176Z,68.55
2022-10-29T17:12:43.488Z,68.36
2022-10-29T17:15:10.831Z,68.47
2022-10-29T17:17:41.073Z,69.47
2022-10-29T17:20:11.286Z,68.79
2022-10-29T17:22:38.935Z,68.36
2022-10-29T17:25:06.643Z,69.62
2022-10-29T17:27:33.952Z,68.59
2022-10-29T17:30:01.593Z,70.62
2022-10-29T17:32:32.550Z,70.15
2022-10-29T17:35:00.252Z,69.12
2022-10-29T17:37:27.878Z,69.52
2022-10-29T17:39:55.189Z,71.75
2022-10-29T17:42:22.546Z,70.52
2022-10-29T17:44:50.165Z,69.56
2022-10-29T17:47:17.468Z,69.03
2022-10-29T17:49:44.806Z,69.14
2022-10-29T17:52:12.440Z,73.09
2022-10-29T17:54:39.771Z,70.67
2022-10-29T17:57:07.109Z,70.45
2022-10-29T17:59:34.730Z,75.29
2022-10-29T18:02:02.166Z,72.74
2022-10-29T18:04:29.815Z,71.83
2022-10-29T18:06:57.197Z,71.67
2022-10-29T18:09:24.547Z,69.32
2022-10-29T18:11:52.168Z,71.16
2022-10-29T18:14:19.544Z,70.97
2022-10-29T18:16:46.915Z,70.34
2022-10-29T18:19:14.557Z,70.90
2022-10-29T18:21:41.891Z,72.16
2022-10-29T18:24:09.410Z,71.65
2022-10-29T18:26:36.996Z,72.19
2022-10-29T18:29:08.918Z,71.59
2022-10-29T18:31:36.621Z,70.27
2022-10-29T18:34:05.997Z,69.74
2022-10-29T18:36:35.647Z,69.27
2022-10-29T18:39:04.180Z,69.17
2022-10-29T18:41:31.528Z,69.15
2022-10-29T18:43:59.091Z,69.37
2022-10-29T18:46:26.769Z,70.32
2022-10-29T18:48:54.101Z,69.79
2022-10-29T18:51:29.297Z,68.95
2022-10-29T18:54:00.019Z,69.07
2022-10-29T18:56:28.098Z,70.38
2022-10-29T18:58:55.936Z,70.29
2022-10-29T19:01:25.067Z,69.11
2022-10-29T19:04:00.312Z,69.80
2022-10-29T19:06:29.309Z,69.49
2022-10-29T19:08:56.676Z,68.96
2022-10-29T19:11:27.566Z,69.77
2022-10-29T19:13:59.663Z,70.42
2022-10-29T19:16:27.289Z,70.36
2022-10-29T19:18:56.015Z,69.93
2022-10-29T19:21:23.421Z,69.38
2022-10-29T19:23:55.203Z,70.62
2022-10-29T19:26:22.825Z,71.53
2022-10-29T19:28:50.186Z,69.89
2022-10-29T19:31:22.491Z,69.94
2022-10-29T19:33:50.461Z,69.96
2022-10-29T19:36:17.902Z,69.47
2022-10-29T19:38:45.284Z,69.74
2022-10-29T19:41:13.021Z,68.15
2022-10-29T19:43:40.502Z,70.42
2022-10-29T19:46:08.792Z,72.60
2022-10-29T19:48:36.408Z,72.95
2022-10-29T19:51:03.815Z,72.72
2022-10-29T19:53:31.330Z,71.89
2022-10-29T19:55:58.964Z,70.94
2022-10-29T19:58:27.189Z,70.31
2022-10-29T20:00:54.827Z,75.91
2022-10-29T20:03:22.513Z,74.89
2022-10-29T20:05:49.874Z,72.49
2022-10-29T20:08:17.216Z,71.70
2022-10-29T20:10:44.807Z,72.21
2022-10-29T20:13:12.148Z,71.18
2022-10-29T20:15:40.132Z,70.39
2022-10-29T20:18:07.797Z,70.42
2022-10-29T20:20:35.171Z,70.27
2022-10-29T20:23:02.644Z,69.97
2022-10-29T20:25:30.403Z,69.78
2022-10-29T20:27:59.434Z,69.23
2022-10-29T20:30:26.741Z,71.07
2022-10-29T20:32:54.470Z,71.94
2022-10-29T20:35:22.205Z,70.92
2022-10-29T20:37:49.645Z,70.42
2022-10-29T20:40:17.299Z,71.29
2022-10-29T20:42:44.709Z,71.63
2022-10-29T20:45:12.065Z,71.40
2022-10-29T20:47:39.693Z,70.40
2022-10-29T20:50:07.281Z,69.83
2022-10-29T20:52:34.595Z,70.51
2022-10-29T20:55:02.160Z,70.47
2022-10-29T20:57:29.602Z,70.53
2022-10-29T20:59:58.472Z,71.27
2022-10-29T21:02:26.130Z,71.29
2022-10-29T21:04:53.543Z,70.61
2022-10-29T21:07:20.953Z,70.19
2022-10-29T21:09:48.569Z,70.47
2022-10-29T21:12:15.920Z,70.44
2022-10-29T21:14:43.251Z,70.53
2022-10-29T21:17:11.181Z,70.67
2022-10-29T21:19:38.506Z,69.72
2022-10-29T21:22:05.927Z,69.77
2022-10-29T21:24:33.572Z,73.69
2022-10-29T21:27:00.923Z,72.72
2022-10-29T21:29:28.256Z,70.90
2022-10-29T21:31:55.830Z,71.44
2022-10-29T21:34:23.160Z,71.36
2022-10-29T21:36:50.508Z,71.21
2022-10-29T21:39:18.112Z,70.52
2022-10-29T21:41:45.462Z,71.08
2022-10-29T21:44:12.816Z,71.55
2022-10-29T21:46:40.691Z,72.09
2022-10-29T21:49:08.020Z,71.68
2022-10-29T21:51:35.330Z,71.45
2022-10-29T21:54:02.933Z,71.29
2022-10-29T21:56:30.378Z,71.75
2022-10-29T21:58:57.754Z,73.54
2022-10-29T22:01:25.425Z,75.15
2022-10-29T22:03:53.074Z,74.61
2022-10-29T22:06:21.434Z,76.91
2022-10-29T22:08:53.912Z,76.00
2022-10-29T22:11:21.715Z,74.35
2022-10-29T22:13:48.986Z,73.73
2022-10-29T22:16:16.243Z,72.59
2022-10-29T22:18:44.275Z,71.68
2022-10-29T22:21:12.485Z,71.28
2022-10-29T22:23:47.022Z,72.16
2022-10-29T22:26:15.611Z,71.49
2022-10-29T22:28:43.007Z,71.39
2022-10-29T22:31:10.727Z,71.84
2022-10-29T22:33:38.262Z,73.17
2022-10-29T22:36:06.511Z,72.90
2022-10-29T22:38:33.801Z,73.11
2022-10-29T22:41:08.818Z,71.44
2022-10-29T22:43:36.271Z,72.10
2022-10-29T22:46:04.011Z,72.88
2022-10-29T22:48:31.380Z,73.45
2022-10-29T22:51:02.703Z,72.22
2022-10-29T22:53:30.637Z,72.95
2022-10-29T22:55:58.047Z,71.61
2022-10-29T22:58:25.582Z,71.50
2022-10-29T23:01:03.596Z,71.50
2022-10-29T23:03:30.952Z,71.17
2022-10-29T23:06:02.678Z,71.02
2022-10-29T23:08:30.043Z,71.59
2022-10-29T23:10:57.345Z,71.58
2022-10-29T23:13:24.951Z,70.77
2022-10-29T23:15:52.773Z,71.73
2022-10-29T23:18:20.118Z,71.43
2022-10-29T23:20:47.765Z,73.28
2022-10-29T23:23:15.105Z,72.27
2022-10-29T23:25:42.890Z,72.77
2022-10-29T23:28:10.476Z,74.90
2022-10-29T23:30:37.803Z,74.68
2022-10-29T23:33:05.110Z,79.48
2022-10-29T23:35:34.807Z,75.45
2022-10-29T23:38:02.141Z,73.51
2022-10-29T23:40:29.443Z,77.62
2022-10-29T23:42:57.037Z,76.81
2022-10-29T23:45:24.365Z,74.49
2022-10-29T23:47:51.679Z,74.21
2022-10-29T23:50:19.276Z,74.77
2022-10-29T23:52:46.622Z,73.64
2022-10-29T23:55:14.015Z,74.26
2022-10-29T23:57:41.634Z,73.94
